sensor_id;sensor_type;location;lat;lon;timestamp;P1;durP1;ratioP1;P2;durP2;ratioP2
46463;SDS011;32161;48.148;-1.554;2024-01-30T00:00:00;13.07;;;6.40;;
46463;SDS011;32161;48.148;-1.554;2024-01-30T00:02:28;14.82;;;6.95;;
46463;SDS011;32161;48.148;-1.554;2024-01-30T00:04:55;15.07;;;6.72;;
46463;SDS011;32161;48.148;-1.554;2024-01-30T00:07:23;18.27;;;8.25;;
46463;SDS011;32161;48.148;-1.554;2024-01-30T00:09:50;19.60;;;6.70;;
46463;SDS011;32161;48.148;-1.554;2024-01-30T00:12:18;20.92;;;7.53;;
46463;SDS011;32161;48.148;-1.554;2024-01-30T00:14:47;20.60;;;7.57;;
46463;SDS011;32161;48.148;-1.554;2024-01-30T00:17:15;20.13;;;7.68;;
46463;SDS011;32161;48.148;-1.554;2024-01-30T00:19:42;23.20;;;7.32;;
46463;SDS011;32161;48.148;-1.554;2024-01-30T00:22:10;18.25;;;8.48;;
46463;SDS011;32161;48.148;-1.554;2024-01-30T00:24:37;22.52;;;7.25;;
46463;SDS011;32161;48.148;-1.554;2024-01-30T00:27:05;21.92;;;7.47;;
46463;SDS011;32161;48.148;-1.554;2024-01-30T00:29:32;19.80;;;7.45;;
46463;SDS011;32161;48.148;-1.554;2024-01-30T00:32:01;18.63;;;7.50;;
46463;SDS011;32161;48.148;-1.554;2024-01-30T00:34:29;24.40;;;6.78;;
46463;SDS011;32161;48.148;-1.554;2024-01-30T00:36:57;18.85;;;7.20;;
46463;SDS011;32161;48.148;-1.554;2024-01-30T00:39:24;16.70;;;7.50;;
46463;SDS011;32161;48.148;-1.554;2024-01-30T00:41:52;21.55;;;7.72;;
46463;SDS011;32161;48.148;-1.554;2024-01-30T00:44:19;17.00;;;6.88;;
46463;SDS011;32161;48.148;-1.554;2024-01-30T00:46:47;24.63;;;8.93;;
46463;SDS011;32161;48.148;-1.554;2024-01-30T00:49:16;22.13;;;7.72;;
46463;SDS011;32161;48.148;-1.554;2024-01-30T00:51:44;19.48;;;7.70;;
46463;SDS011;32161;48.148;-1.554;2024-01-30T00:54:12;24.88;;;7.28;;
46463;SDS011;32161;48.148;-1.554;2024-01-30T00:56:40;25.90;;;7.53;;
46463;SDS011;32161;48.148;-1.554;2024-01-30T00:59:08;23.88;;;8.20;;
46463;SDS011;32161;48.148;-1.554;2024-01-30T01:01:35;24.67;;;7.30;;
46463;SDS011;32161;48.148;-1.554;2024-01-30T01:04:03;25.10;;;8.07;;
46463;SDS011;32161;48.148;-1.554;2024-01-30T01:06:32;18.52;;;8.48;;
46463;SDS011;32161;48.148;-1.554;2024-01-30T01:08:59;23.38;;;8.48;;
46463;SDS011;32161;48.148;-1.554;2024-01-30T01:11:28;24.55;;;8.27;;
46463;SDS011;32161;48.148;-1.554;2024-01-30T01:13:55;29.77;;;8.60;;
46463;SDS011;32161;48.148;-1.554;2024-01-30T01:16:23;17.67;;;7.03;;
46463;SDS011;32161;48.148;-1.554;2024-01-30T01:18:50;17.90;;;9.05;;
46463;SDS011;32161;48.148;-1.554;2024-01-30T01:21:18;24.45;;;7.72;;
46463;SDS011;32161;48.148;-1.554;2024-01-30T01:23:47;17.90;;;7.28;;
46463;SDS011;32161;48.148;-1.554;2024-01-30T01:26:14;19.13;;;7.47;;
46463;SDS011;32161;48.148;-1.554;2024-01-30T01:28:42;17.92;;;7.15;;
46463;SDS011;32161;48.148;-1.554;2024-01-30T01:31:09;23.70;;;6.95;;
46463;SDS011;32161;48.148;-1.554;2024-01-30T01:33:37;17.75;;;7.13;;
46463;SDS011;32161;48.148;-1.554;2024-01-30T01:36:05;23.50;;;7.60;;
46463;SDS011;32161;48.148;-1.554;2024-01-30T01:38:32;20.63;;;7.47;;
46463;SDS011;32161;48.148;-1.554;2024-01-30T01:41:01;22.58;;;8.77;;
46463;SDS011;32161;48.148;-1.554;2024-01-30T01:43:29;21.00;;;7.00;;
46463;SDS011;32161;48.148;-1.554;2024-01-30T01:45:57;21.13;;;7.03;;
46463;SDS011;32161;48.148;-1.554;2024-01-30T01:48:25;22.85;;;8.55;;
46463;SDS011;32161;48.148;-1.554;2024-01-30T01:50:53;13.65;;;6.43;;
46463;SDS011;32161;48.148;-1.554;2024-01-30T01:53:21;21.05;;;6.63;;
46463;SDS011;32161;48.148;-1.554;2024-01-30T01:55:49;22.63;;;7.25;;
46463;SDS011;32161;48.148;-1.554;2024-01-30T01:58:19;21.80;;;7.20;;
46463;SDS011;32161;48.148;-1.554;2024-01-30T02:00:48;18.93;;;8.30;;
46463;SDS011;32161;48.148;-1.554;2024-01-30T02:03:17;15.65;;;6.15;;
46463;SDS011;32161;48.148;-1.554;2024-01-30T02:05:47;17.55;;;6.53;;
46463;SDS011;32161;48.148;-1.554;2024-01-30T02:08:15;19.35;;;6.85;;
46463;SDS011;32161;48.148;-1.554;2024-01-30T02:10:43;15.40;;;5.93;;
46463;SDS011;32161;48.148;-1.554;2024-01-30T02:13:11;23.85;;;5.75;;
46463;SDS011;32161;48.148;-1.554;2024-01-30T02:15:39;21.08;;;6.07;;
46463;SDS011;32161;48.148;-1.554;2024-01-30T02:18:07;15.20;;;6.50;;
46463;SDS011;32161;48.148;-1.554;2024-01-30T02:20:35;17.38;;;5.80;;
46463;SDS011;32161;48.148;-1.554;2024-01-30T02:23:05;20.92;;;5.88;;
46463;SDS011;32161;48.148;-1.554;2024-01-30T02:25:39;11.07;;;4.60;;
46463;SDS011;32161;48.148;-1.554;2024-01-30T02:28:09;16.13;;;4.75;;
46463;SDS011;32161;48.148;-1.554;2024-01-30T02:30:38;7.38;;;3.92;;
46463;SDS011;32161;48.148;-1.554;2024-01-30T02:33:06;12.25;;;4.03;;
46463;SDS011;32161;48.148;-1.554;2024-01-30T02:35:33;10.82;;;4.32;;
46463;SDS011;32161;48.148;-1.554;2024-01-30T02:38:01;10.55;;;3.15;;
46463;SDS011;32161;48.148;-1.554;2024-01-30T02:40:30;12.93;;;3.38;;
46463;SDS011;32161;48.148;-1.554;2024-01-30T02:42:59;13.88;;;3.53;;
46463;SDS011;32161;48.148;-1.554;2024-01-30T02:45:29;12.63;;;2.70;;
46463;SDS011;32161;48.148;-1.554;2024-01-30T02:47:57;9.60;;;2.88;;
46463;SDS011;32161;48.148;-1.554;2024-01-30T02:50:24;5.20;;;2.88;;
46463;SDS011;32161;48.148;-1.554;2024-01-30T02:52:52;8.93;;;2.20;;
46463;SDS011;32161;48.148;-1.554;2024-01-30T02:55:20;8.85;;;2.45;;
46463;SDS011;32161;48.148;-1.554;2024-01-30T02:57:48;7.25;;;2.30;;
46463;SDS011;32161;48.148;-1.554;2024-01-30T03:00:16;5.88;;;2.20;;
46463;SDS011;32161;48.148;-1.554;2024-01-30T03:02:46;4.20;;;2.00;;
46463;SDS011;32161;48.148;-1.554;2024-01-30T03:05:13;5.50;;;2.00;;
46463;SDS011;32161;48.148;-1.554;2024-01-30T03:07:41;5.47;;;2.60;;
46463;SDS011;32161;48.148;-1.554;2024-01-30T03:10:08;3.13;;;1.35;;
46463;SDS011;32161;48.148;-1.554;2024-01-30T03:12:36;6.40;;;1.60;;
46463;SDS011;32161;48.148;-1.554;2024-01-30T03:15:05;2.90;;;1.10;;
46463;SDS011;32161;48.148;-1.554;2024-01-30T03:17:35;3.60;;;1.33;;
46463;SDS011;32161;48.148;-1.554;2024-01-30T03:20:03;6.38;;;1.30;;
46463;SDS011;32161;48.148;-1.554;2024-01-30T03:22:32;5.97;;;1.40;;
46463;SDS011;32161;48.148;-1.554;2024-01-30T03:24:59;3.55;;;0.98;;
46463;SDS011;32161;48.148;-1.554;2024-01-30T03:27:27;6.55;;;1.30;;
46463;SDS011;32161;48.148;-1.554;2024-01-30T03:29:55;4.97;;;0.90;;
46463;SDS011;32161;48.148;-1.554;2024-01-30T03:32:24;7.05;;;1.20;;
46463;SDS011;32161;48.148;-1.554;2024-01-30T03:34:51;1.50;;;0.60;;
46463;SDS011;32161;48.148;-1.554;2024-01-30T03:37:19;2.78;;;0.68;;
46463;SDS011;32161;48.148;-1.554;2024-01-30T03:39:46;2.40;;;0.70;;
46463;SDS011;32161;48.148;-1.554;2024-01-30T03:42:14;1.35;;;0.40;;
46463;SDS011;32161;48.148;-1.554;2024-01-30T03:44:42;1.42;;;0.45;;
46463;SDS011;32161;48.148;-1.554;2024-01-30T03:47:10;1.73;;;0.57;;
46463;SDS011;32161;48.148;-1.554;2024-01-30T03:49:39;2.50;;;0.60;;
46463;SDS011;32161;48.148;-1.554;2024-01-30T03:52:06;3.63;;;0.80;;
46463;SDS011;32161;48.148;-1.554;2024-01-30T03:54:34;9.07;;;1.45;;
46463;SDS011;32161;48.148;-1.554;2024-01-30T03:57:02;2.42;;;1.08;;
46463;SDS011;32161;48.148;-1.554;2024-01-30T03:59:30;2.67;;;0.90;;
46463;SDS011;32161;48.148;-1.554;2024-01-30T04:01:58;2.40;;;0.93;;
46463;SDS011;32161;48.148;-1.554;2024-01-30T04:04:26;4.55;;;1.05;;
46463;SDS011;32161;48.148;-1.554;2024-01-30T04:06:55;4.53;;;1.00;;
46463;SDS011;32161;48.148;-1.554;2024-01-30T04:09:22;2.05;;;0.80;;
46463;SDS011;32161;48.148;-1.554;2024-01-30T04:11:51;0.82;;;0.75;;
46463;SDS011;32161;48.148;-1.554;2024-01-30T04:14:19;2.15;;;0.50;;
46463;SDS011;32161;48.148;-1.554;2024-01-30T04:16:47;1.02;;;0.45;;
46463;SDS011;32161;48.148;-1.554;2024-01-30T04:19:14;1.75;;;0.63;;
46463;SDS011;32161;48.148;-1.554;2024-01-30T04:21:42;2.53;;;0.70;;
46463;SDS011;32161;48.148;-1.554;2024-01-30T04:24:10;3.83;;;1.42;;
46463;SDS011;32161;48.148;-1.554;2024-01-30T04:26:38;3.75;;;1.77;;
46463;SDS011;32161;48.148;-1.554;2024-01-30T04:29:06;3.10;;;1.17;;
46463;SDS011;32161;48.148;-1.554;2024-01-30T04:31:35;3.97;;;1.25;;
46463;SDS011;32161;48.148;-1.554;2024-01-30T04:34:03;1.48;;;0.40;;
46463;SDS011;32161;48.148;-1.554;2024-01-30T04:36:30;0.82;;;0.82;;
46463;SDS011;32161;48.148;-1.554;2024-01-30T04:38:58;3.60;;;0.82;;
46463;SDS011;32161;48.148;-1.554;2024-01-30T04:41:27;3.13;;;0.75;;
46463;SDS011;32161;48.148;-1.554;2024-01-30T04:43:56;1.50;;;0.40;;
46463;SDS011;32161;48.148;-1.554;2024-01-30T04:46:24;3.78;;;0.75;;
46463;SDS011;32161;48.148;-1.554;2024-01-30T04:48:51;1.85;;;0.50;;
46463;SDS011;32161;48.148;-1.554;2024-01-30T04:51:19;0.90;;;0.70;;
46463;SDS011;32161;48.148;-1.554;2024-01-30T04:53:46;1.80;;;0.90;;
46463;SDS011;32161;48.148;-1.554;2024-01-30T04:56:14;3.58;;;2.05;;
46463;SDS011;32161;48.148;-1.554;2024-01-30T04:58:43;2.63;;;0.70;;
46463;SDS011;32161;48.148;-1.554;2024-01-30T05:01:14;3.40;;;0.85;;
46463;SDS011;32161;48.148;-1.554;2024-01-30T05:03:42;1.83;;;0.52;;
46463;SDS011;32161;48.148;-1.554;2024-01-30T05:06:09;1.33;;;0.55;;
46463;SDS011;32161;48.148;-1.554;2024-01-30T05:08:37;0.80;;;0.50;;
46463;SDS011;32161;48.148;-1.554;2024-01-30T05:11:05;1.48;;;0.52;;
46463;SDS011;32161;48.148;-1.554;2024-01-30T05:13:32;0.50;;;0.50;;
46463;SDS011;32161;48.148;-1.554;2024-01-30T05:16:03;0.57;;;0.40;;
46463;SDS011;32161;48.148;-1.554;2024-01-30T05:18:31;2.60;;;0.68;;
46463;SDS011;32161;48.148;-1.554;2024-01-30T05:20:58;0.60;;;0.60;;
46463;SDS011;32161;48.148;-1.554;2024-01-30T05:23:26;1.67;;;0.38;;
46463;SDS011;32161;48.148;-1.554;2024-01-30T05:25:53;2.33;;;0.50;;
46463;SDS011;32161;48.148;-1.554;2024-01-30T05:28:21;4.03;;;0.57;;
46463;SDS011;32161;48.148;-1.554;2024-01-30T05:30:50;0.60;;;0.40;;
46463;SDS011;32161;48.148;-1.554;2024-01-30T05:33:19;1.25;;;0.40;;
46463;SDS011;32161;48.148;-1.554;2024-01-30T05:35:46;1.05;;;0.82;;
46463;SDS011;32161;48.148;-1.554;2024-01-30T05:38:15;0.88;;;0.40;;
46463;SDS011;32161;48.148;-1.554;2024-01-30T05:40:43;2.97;;;0.75;;
46463;SDS011;32161;48.148;-1.554;2024-01-30T05:43:11;0.40;;;0.40;;
46463;SDS011;32161;48.148;-1.554;2024-01-30T05:45:38;0.38;;;0.20;;
46463;SDS011;32161;48.148;-1.554;2024-01-30T05:48:06;0.38;;;0.20;;
46463;SDS011;32161;48.148;-1.554;2024-01-30T05:50:35;1.00;;;0.40;;
46463;SDS011;32161;48.148;-1.554;2024-01-30T05:53:03;1.48;;;0.52;;
46463;SDS011;32161;48.148;-1.554;2024-01-30T05:55:30;4.80;;;1.23;;
46463;SDS011;32161;48.148;-1.554;2024-01-30T05:57:58;0.70;;;0.70;;
46463;SDS011;32161;48.148;-1.554;2024-01-30T06:00:26;0.65;;;0.40;;
46463;SDS011;32161;48.148;-1.554;2024-01-30T06:02:54;0.60;;;0.45;;
46463;SDS011;32161;48.148;-1.554;2024-01-30T06:05:21;0.60;;;0.40;;
46463;SDS011;32161;48.148;-1.554;2024-01-30T06:07:50;2.78;;;0.40;;
46463;SDS011;32161;48.148;-1.554;2024-01-30T06:10:18;0.73;;;0.73;;
46463;SDS011;32161;48.148;-1.554;2024-01-30T06:12:46;2.33;;;0.60;;
46463;SDS011;32161;48.148;-1.554;2024-01-30T06:15:13;0.40;;;0.40;;
46463;SDS011;32161;48.148;-1.554;2024-01-30T06:17:41;1.00;;;0.50;;
46463;SDS011;32161;48.148;-1.554;2024-01-30T06:20:09;0.93;;;0.52;;
46463;SDS011;32161;48.148;-1.554;2024-01-30T06:22:37;1.08;;;0.50;;
46463;SDS011;32161;48.148;-1.554;2024-01-30T06:25:06;2.45;;;0.57;;
46463;SDS011;32161;48.148;-1.554;2024-01-30T06:27:35;0.70;;;0.35;;
46463;SDS011;32161;48.148;-1.554;2024-01-30T06:30:03;0.20;;;0.20;;
46463;SDS011;32161;48.148;-1.554;2024-01-30T06:32:32;0.90;;;0.25;;
46463;SDS011;32161;48.148;-1.554;2024-01-30T06:34:59;0.22;;;0.22;;
46463;SDS011;32161;48.148;-1.554;2024-01-30T06:37:27;0.47;;;0.38;;
46463;SDS011;32161;48.148;-1.554;2024-01-30T06:39:55;0.30;;;0.30;;
46463;SDS011;32161;48.148;-1.554;2024-01-30T06:42:24;0.30;;;0.30;;
46463;SDS011;32161;48.148;-1.554;2024-01-30T06:44:51;0.65;;;0.30;;
46463;SDS011;32161;48.148;-1.554;2024-01-30T06:47:19;0.40;;;0.20;;
46463;SDS011;32161;48.148;-1.554;2024-01-30T06:49:47;0.30;;;0.30;;
46463;SDS011;32161;48.148;-1.554;2024-01-30T06:52:14;0.40;;;0.28;;
46463;SDS011;32161;48.148;-1.554;2024-01-30T06:54:42;0.73;;;0.40;;
46463;SDS011;32161;48.148;-1.554;2024-01-30T06:57:09;1.42;;;0.40;;
46463;SDS011;32161;48.148;-1.554;2024-01-30T06:59:40;1.52;;;0.50;;
46463;SDS011;32161;48.148;-1.554;2024-01-30T07:02:09;0.98;;;0.52;;
46463;SDS011;32161;48.148;-1.554;2024-01-30T07:04:36;0.57;;;0.30;;
46463;SDS011;32161;48.148;-1.554;2024-01-30T07:07:04;0.63;;;0.25;;
46463;SDS011;32161;48.148;-1.554;2024-01-30T07:09:37;1.15;;;0.40;;
46463;SDS011;32161;48.148;-1.554;2024-01-30T07:12:05;0.70;;;0.70;;
46463;SDS011;32161;48.148;-1.554;2024-01-30T07:14:33;1.85;;;0.60;;
46463;SDS011;32161;48.148;-1.554;2024-01-30T07:17:02;0.60;;;0.60;;
46463;SDS011;32161;48.148;-1.554;2024-01-30T07:19:31;0.70;;;0.70;;
46463;SDS011;32161;48.148;-1.554;2024-01-30T07:21:59;6.90;;;0.80;;
46463;SDS011;32161;48.148;-1.554;2024-01-30T07:24:27;0.80;;;0.80;;
46463;SDS011;32161;48.148;-1.554;2024-01-30T07:26:54;2.45;;;0.90;;
46463;SDS011;32161;48.148;-1.554;2024-01-30T07:29:22;0.90;;;0.80;;
46463;SDS011;32161;48.148;-1.554;2024-01-30T07:31:50;2.90;;;2.08;;
46463;SDS011;32161;48.148;-1.554;2024-01-30T07:34:19;5.43;;;2.90;;
46463;SDS011;32161;48.148;-1.554;2024-01-30T07:36:46;7.15;;;2.47;;
46463;SDS011;32161;48.148;-1.554;2024-01-30T07:39:14;4.45;;;1.58;;
46463;SDS011;32161;48.148;-1.554;2024-01-30T07:41:41;2.75;;;1.00;;
46463;SDS011;32161;48.148;-1.554;2024-01-30T07:44:09;2.08;;;1.10;;
46463;SDS011;32161;48.148;-1.554;2024-01-30T07:46:37;1.00;;;0.90;;
46463;SDS011;32161;48.148;-1.554;2024-01-30T07:49:04;0.93;;;0.70;;
46463;SDS011;32161;48.148;-1.554;2024-01-30T07:51:33;2.63;;;0.90;;
46463;SDS011;32161;48.148;-1.554;2024-01-30T07:54:01;2.28;;;2.05;;
46463;SDS011;32161;48.148;-1.554;2024-01-30T07:56:28;2.10;;;1.60;;
46463;SDS011;32161;48.148;-1.554;2024-01-30T07:58:56;2.63;;;1.67;;
46463;SDS011;32161;48.148;-1.554;2024-01-30T08:01:23;1.10;;;1.08;;
46463;SDS011;32161;48.148;-1.554;2024-01-30T08:03:51;2.90;;;1.10;;
46463;SDS011;32161;48.148;-1.554;2024-01-30T08:06:19;1.20;;;1.10;;
46463;SDS011;32161;48.148;-1.554;2024-01-30T08:08:48;5.72;;;2.22;;
46463;SDS011;32161;48.148;-1.554;2024-01-30T08:11:19;6.22;;;2.72;;
46463;SDS011;32161;48.148;-1.554;2024-01-30T08:13:50;6.68;;;3.15;;
46463;SDS011;32161;48.148;-1.554;2024-01-30T08:16:18;4.82;;;2.65;;
46463;SDS011;32161;48.148;-1.554;2024-01-30T08:18:45;9.45;;;2.50;;
46463;SDS011;32161;48.148;-1.554;2024-01-30T08:21:13;5.55;;;2.60;;
46463;SDS011;32161;48.148;-1.554;2024-01-30T08:23:40;6.57;;;2.72;;
46463;SDS011;32161;48.148;-1.554;2024-01-30T08:26:10;8.15;;;2.33;;
46463;SDS011;32161;48.148;-1.554;2024-01-30T08:28:38;4.47;;;2.30;;
46463;SDS011;32161;48.148;-1.554;2024-01-30T08:31:05;5.60;;;2.50;;
46463;SDS011;32161;48.148;-1.554;2024-01-30T08:33:33;6.30;;;2.40;;
46463;SDS011;32161;48.148;-1.554;2024-01-30T08:36:00;5.15;;;2.42;;
46463;SDS011;32161;48.148;-1.554;2024-01-30T08:38:28;7.03;;;3.08;;
46463;SDS011;32161;48.148;-1.554;2024-01-30T08:40:56;13.18;;;3.30;;
46463;SDS011;32161;48.148;-1.554;2024-01-30T08:43:25;8.93;;;2.80;;
46463;SDS011;32161;48.148;-1.554;2024-01-30T08:45:52;10.85;;;3.25;;
46463;SDS011;32161;48.148;-1.554;2024-01-30T08:48:20;7.13;;;2.80;;
46463;SDS011;32161;48.148;-1.554;2024-01-30T08:50:47;4.35;;;2.55;;
46463;SDS011;32161;48.148;-1.554;2024-01-30T08:53:15;7.50;;;3.20;;
46463;SDS011;32161;48.148;-1.554;2024-01-30T08:55:43;4.60;;;2.45;;
46463;SDS011;32161;48.148;-1.554;2024-01-30T08:58:11;11.75;;;3.40;;
46463;SDS011;32161;48.148;-1.554;2024-01-30T09:00:40;8.60;;;2.63;;
46463;SDS011;32161;48.148;-1.554;2024-01-30T09:03:08;3.42;;;1.85;;
46463;SDS011;32161;48.148;-1.554;2024-01-30T09:05:35;4.85;;;1.90;;
46463;SDS011;32161;48.148;-1.554;2024-01-30T09:08:03;3.53;;;1.23;;
46463;SDS011;32161;48.148;-1.554;2024-01-30T09:10:31;4.35;;;2.47;;
46463;SDS011;32161;48.148;-1.554;2024-01-30T09:12:58;1.33;;;1.23;;
46463;SDS011;32161;48.148;-1.554;2024-01-30T09:15:26;2.95;;;1.73;;
46463;SDS011;32161;48.148;-1.554;2024-01-30T09:17:55;3.03;;;2.00;;
46463;SDS011;32161;48.148;-1.554;2024-01-30T09:20:23;6.55;;;2.20;;
46463;SDS011;32161;48.148;-1.554;2024-01-30T09:22:50;1.60;;;1.50;;
46463;SDS011;32161;48.148;-1.554;2024-01-30T09:25:18;2.83;;;1.15;;
46463;SDS011;32161;48.148;-1.554;2024-01-30T09:27:45;1.08;;;1.00;;
46463;SDS011;32161;48.148;-1.554;2024-01-30T09:30:13;2.53;;;1.30;;
46463;SDS011;32161;48.148;-1.554;2024-01-30T09:32:41;2.38;;;1.05;;
46463;SDS011;32161;48.148;-1.554;2024-01-30T09:35:11;1.70;;;1.20;;
46463;SDS011;32161;48.148;-1.554;2024-01-30T09:37:39;4.25;;;1.50;;
46463;SDS011;32161;48.148;-1.554;2024-01-30T09:40:08;3.03;;;1.75;;
46463;SDS011;32161;48.148;-1.554;2024-01-30T09:42:36;2.15;;;1.25;;
46463;SDS011;32161;48.148;-1.554;2024-01-30T09:45:04;2.85;;;1.20;;
46463;SDS011;32161;48.148;-1.554;2024-01-30T09:47:33;1.60;;;1.50;;
46463;SDS011;32161;48.148;-1.554;2024-01-30T09:50:08;3.45;;;1.45;;
46463;SDS011;32161;48.148;-1.554;2024-01-30T09:52:38;2.95;;;1.05;;
46463;SDS011;32161;48.148;-1.554;2024-01-30T09:55:07;3.53;;;1.42;;
46463;SDS011;32161;48.148;-1.554;2024-01-30T09:57:35;1.38;;;1.30;;
46463;SDS011;32161;48.148;-1.554;2024-01-30T10:00:04;1.23;;;1.20;;
46463;SDS011;32161;48.148;-1.554;2024-01-30T10:02:34;1.70;;;1.05;;
46463;SDS011;32161;48.148;-1.554;2024-01-30T10:05:02;1.05;;;1.00;;
46463;SDS011;32161;48.148;-1.554;2024-01-30T10:07:32;1.38;;;1.35;;
46463;SDS011;32161;48.148;-1.554;2024-01-30T10:09:59;3.30;;;0.93;;
46463;SDS011;32161;48.148;-1.554;2024-01-30T10:12:27;0.90;;;0.90;;
46463;SDS011;32161;48.148;-1.554;2024-01-30T10:14:56;1.25;;;0.95;;
46463;SDS011;32161;48.148;-1.554;2024-01-30T10:17:24;2.50;;;0.80;;
46463;SDS011;32161;48.148;-1.554;2024-01-30T10:19:52;2.58;;;0.73;;
46463;SDS011;32161;48.148;-1.554;2024-01-30T10:22:20;0.60;;;0.60;;
46463;SDS011;32161;48.148;-1.554;2024-01-30T10:24:49;0.85;;;0.75;;
46463;SDS011;32161;48.148;-1.554;2024-01-30T10:27:17;2.28;;;0.68;;
46463;SDS011;32161;48.148;-1.554;2024-01-30T10:29:52;0.75;;;0.60;;
46463;SDS011;32161;48.148;-1.554;2024-01-30T10:32:19;0.60;;;0.60;;
46463;SDS011;32161;48.148;-1.554;2024-01-30T10:34:47;0.65;;;0.47;;
46463;SDS011;32161;48.148;-1.554;2024-01-30T10:37:15;1.88;;;0.57;;
46463;SDS011;32161;48.148;-1.554;2024-01-30T10:39:44;1.05;;;0.43;;
46463;SDS011;32161;48.148;-1.554;2024-01-30T10:42:13;1.00;;;0.40;;
46463;SDS011;32161;48.148;-1.554;2024-01-30T10:44:45;0.82;;;0.50;;
46463;SDS011;32161;48.148;-1.554;2024-01-30T10:47:25;0.40;;;0.40;;
46463;SDS011;32161;48.148;-1.554;2024-01-30T10:52:22;0.70;;;0.50;;
46463;SDS011;32161;48.148;-1.554;2024-01-30T10:54:51;1.35;;;0.52;;
46463;SDS011;32161;48.148;-1.554;2024-01-30T10:57:23;1.75;;;0.85;;
46463;SDS011;32161;48.148;-1.554;2024-01-30T10:59:52;1.27;;;0.73;;
46463;SDS011;32161;48.148;-1.554;2024-01-30T11:02:23;0.52;;;0.52;;
46463;SDS011;32161;48.148;-1.554;2024-01-30T11:04:57;1.65;;;0.70;;
46463;SDS011;32161;48.148;-1.554;2024-01-30T11:07:26;1.63;;;0.47;;
46463;SDS011;32161;48.148;-1.554;2024-01-30T11:09:59;0.30;;;0.30;;
46463;SDS011;32161;48.148;-1.554;2024-01-30T11:12:31;0.20;;;0.20;;
46463;SDS011;32161;48.148;-1.554;2024-01-30T11:15:03;0.25;;;0.20;;
46463;SDS011;32161;48.148;-1.554;2024-01-30T11:17:45;0.45;;;0.20;;
46463;SDS011;32161;48.148;-1.554;2024-01-30T11:20:19;0.32;;;0.20;;
46463;SDS011;32161;48.148;-1.554;2024-01-30T11:22:49;2.88;;;0.50;;
46463;SDS011;32161;48.148;-1.554;2024-01-30T11:25:19;1.60;;;0.23;;
46463;SDS011;32161;48.148;-1.554;2024-01-30T11:27:51;1.60;;;0.30;;
46463;SDS011;32161;48.148;-1.554;2024-01-30T11:30:23;0.60;;;0.25;;
46463;SDS011;32161;48.148;-1.554;2024-01-30T11:32:59;1.33;;;0.40;;
46463;SDS011;32161;48.148;-1.554;2024-01-30T11:35:30;1.10;;;0.65;;
46463;SDS011;32161;48.148;-1.554;2024-01-30T11:37:59;2.05;;;0.50;;
46463;SDS011;32161;48.148;-1.554;2024-01-30T11:40:28;0.45;;;0.43;;
46463;SDS011;32161;48.148;-1.554;2024-01-30T11:42:58;0.90;;;0.68;;
46463;SDS011;32161;48.148;-1.554;2024-01-30T11:47:55;20.38;;;3.35;;
46463;SDS011;32161;48.148;-1.554;2024-01-30T11:50:25;2.38;;;1.17;;
46463;SDS011;32161;48.148;-1.554;2024-01-30T11:52:53;1.85;;;1.00;;
46463;SDS011;32161;48.148;-1.554;2024-01-30T11:55:23;5.32;;;1.17;;
46463;SDS011;32161;48.148;-1.554;2024-01-30T11:57:51;2.25;;;1.10;;
46463;SDS011;32161;48.148;-1.554;2024-01-30T12:00:23;2.97;;;1.88;;
46463;SDS011;32161;48.148;-1.554;2024-01-30T12:02:51;1.35;;;0.90;;
46463;SDS011;32161;48.148;-1.554;2024-01-30T12:05:22;1.70;;;0.77;;
46463;SDS011;32161;48.148;-1.554;2024-01-30T12:07:50;2.65;;;0.98;;
46463;SDS011;32161;48.148;-1.554;2024-01-30T12:10:18;1.23;;;1.02;;
46463;SDS011;32161;48.148;-1.554;2024-01-30T12:12:46;1.95;;;1.20;;
46463;SDS011;32161;48.148;-1.554;2024-01-30T12:15:16;1.50;;;1.08;;
46463;SDS011;32161;48.148;-1.554;2024-01-30T12:17:49;2.83;;;0.70;;
46463;SDS011;32161;48.148;-1.554;2024-01-30T12:20:18;0.80;;;0.70;;
46463;SDS011;32161;48.148;-1.554;2024-01-30T12:22:47;0.47;;;0.47;;
46463;SDS011;32161;48.148;-1.554;2024-01-30T12:25:16;3.15;;;0.60;;
46463;SDS011;32161;48.148;-1.554;2024-01-30T12:27:45;2.17;;;0.60;;
46463;SDS011;32161;48.148;-1.554;2024-01-30T12:30:15;3.03;;;0.70;;
46463;SDS011;32161;48.148;-1.554;2024-01-30T12:32:44;1.60;;;0.70;;
46463;SDS011;32161;48.148;-1.554;2024-01-30T12:35:14;0.85;;;0.30;;
46463;SDS011;32161;48.148;-1.554;2024-01-30T12:37:44;4.78;;;0.35;;
46463;SDS011;32161;48.148;-1.554;2024-01-30T12:40:13;1.60;;;0.30;;
46463;SDS011;32161;48.148;-1.554;2024-01-30T12:42:41;2.47;;;0.50;;
46463;SDS011;32161;48.148;-1.554;2024-01-30T12:45:11;0.50;;;0.50;;
46463;SDS011;32161;48.148;-1.554;2024-01-30T12:47:41;1.00;;;0.40;;
46463;SDS011;32161;48.148;-1.554;2024-01-30T12:50:08;1.35;;;0.60;;
46463;SDS011;32161;48.148;-1.554;2024-01-30T12:52:39;3.10;;;0.60;;
46463;SDS011;32161;48.148;-1.554;2024-01-30T12:55:06;2.30;;;0.50;;
46463;SDS011;32161;48.148;-1.554;2024-01-30T12:57:34;1.90;;;0.60;;
46463;SDS011;32161;48.148;-1.554;2024-01-30T13:00:01;1.75;;;0.50;;
46463;SDS011;32161;48.148;-1.554;2024-01-30T13:02:30;1.73;;;0.80;;
46463;SDS011;32161;48.148;-1.554;2024-01-30T13:07:29;1.38;;;0.50;;
46463;SDS011;32161;48.148;-1.554;2024-01-30T13:09:59;1.77;;;0.70;;
46463;SDS011;32161;48.148;-1.554;2024-01-30T13:12:28;1.02;;;0.45;;
46463;SDS011;32161;48.148;-1.554;2024-01-30T13:14:57;0.30;;;0.30;;
46463;SDS011;32161;48.148;-1.554;2024-01-30T13:17:26;1.17;;;0.38;;
46463;SDS011;32161;48.148;-1.554;2024-01-30T13:19:53;0.93;;;0.45;;
46463;SDS011;32161;48.148;-1.554;2024-01-30T13:22:21;1.80;;;0.30;;
46463;SDS011;32161;48.148;-1.554;2024-01-30T13:24:49;0.75;;;0.20;;
46463;SDS011;32161;48.148;-1.554;2024-01-30T13:27:20;0.52;;;0.22;;
46463;SDS011;32161;48.148;-1.554;2024-01-30T13:29:48;0.52;;;0.40;;
46463;SDS011;32161;48.148;-1.554;2024-01-30T13:32:15;0.32;;;0.30;;
46463;SDS011;32161;48.148;-1.554;2024-01-30T13:34:43;1.08;;;0.30;;
46463;SDS011;32161;48.148;-1.554;2024-01-30T13:37:10;1.58;;;0.40;;
46463;SDS011;32161;48.148;-1.554;2024-01-30T13:39:38;0.80;;;0.40;;
46463;SDS011;32161;48.148;-1.554;2024-01-30T13:42:05;1.98;;;0.40;;
46463;SDS011;32161;48.148;-1.554;2024-01-30T13:44:35;3.20;;;0.55;;
46463;SDS011;32161;48.148;-1.554;2024-01-30T13:47:02;1.38;;;0.93;;
46463;SDS011;32161;48.148;-1.554;2024-01-30T13:49:31;1.92;;;0.80;;
46463;SDS011;32161;48.148;-1.554;2024-01-30T13:51:58;0.22;;;0.15;;
46463;SDS011;32161;48.148;-1.554;2024-01-30T13:54:26;0.50;;;0.50;;
46463;SDS011;32161;48.148;-1.554;2024-01-30T13:56:53;3.42;;;0.63;;
46463;SDS011;32161;48.148;-1.554;2024-01-30T13:59:21;2.85;;;0.40;;
46463;SDS011;32161;48.148;-1.554;2024-01-30T14:01:52;0.63;;;0.40;;
46463;SDS011;32161;48.148;-1.554;2024-01-30T14:04:19;1.50;;;0.38;;
46463;SDS011;32161;48.148;-1.554;2024-01-30T14:06:47;0.20;;;0.20;;
46463;SDS011;32161;48.148;-1.554;2024-01-30T14:09:14;0.35;;;0.30;;
46463;SDS011;32161;48.148;-1.554;2024-01-30T14:11:42;2.15;;;0.75;;
46463;SDS011;32161;48.148;-1.554;2024-01-30T14:14:10;0.68;;;0.20;;
46463;SDS011;32161;48.148;-1.554;2024-01-30T14:16:37;2.38;;;0.30;;
46463;SDS011;32161;48.148;-1.554;2024-01-30T14:19:07;0.20;;;0.20;;
46463;SDS011;32161;48.148;-1.554;2024-01-30T14:21:34;1.45;;;0.30;;
46463;SDS011;32161;48.148;-1.554;2024-01-30T14:24:03;0.20;;;0.20;;
46463;SDS011;32161;48.148;-1.554;2024-01-30T14:26:31;1.38;;;0.32;;
46463;SDS011;32161;48.148;-1.554;2024-01-30T14:28:58;0.20;;;0.10;;
46463;SDS011;32161;48.148;-1.554;2024-01-30T14:31:26;0.50;;;0.25;;
46463;SDS011;32161;48.148;-1.554;2024-01-30T14:33:53;0.52;;;0.40;;
46463;SDS011;32161;48.148;-1.554;2024-01-30T14:36:22;0.57;;;0.20;;
46463;SDS011;32161;48.148;-1.554;2024-01-30T14:38:53;0.30;;;0.10;;
46463;SDS011;32161;48.148;-1.554;2024-01-30T14:41:20;1.38;;;0.40;;
46463;SDS011;32161;48.148;-1.554;2024-01-30T14:43:48;0.20;;;0.10;;